Time;durP1;ratioP1;P1;durP2;ratioP2;P2;SDS_P1;SDS_P2;PMS_P1;PMS_P2;Temp;Humidity;BMP_temperature;BMP_pressure;BME280_temperature;BME280_humidity;BME280_pressure;Samples;Min_cycle;Max_cycle;Signal;HPM_P1;HPM_P2
2024/04/08 00:00:56;;;;;;;16.92;10.82;;;15.80;99.90;;;;;;5489713;26;19998;-81
2024/04/08 00:03:23;;;;;;;12.80;10.38;;;15.80;99.90;;;;;;5489332;26;20002;-81
2024/04/08 00:05:53;;;;;;;14.48;10.43;;;15.80;99.90;;;;;;5433842;26;20510;-81
2024/04/08 00:08:19;;;;;;;20.15;11.52;;;15.70;99.90;;;;;;5439604;26;20017;-80
2024/04/08 00:10:45;;;;;;;22.15;11.70;;;15.70;99.90;;;;;;5427494;26;20002;-81
2024/04/08 00:13:13;;;;;;;18.50;10.73;;;15.80;99.90;;;;;;5456888;26;20448;-81
2024/04/08 00:15:46;;;;;;;17.95;11.13;;;15.70;99.90;;;;;;5457222;26;20392;-81
2024/04/08 00:18:13;;;;;;;18.85;10.85;;;15.70;99.90;;;;;;5441218;26;20003;-81
2024/04/08 00:20:39;;;;;;;19.77;11.18;;;15.70;99.90;;;;;;5421392;26;20013;-81
2024/04/08 00:23:05;;;;;;;16.08;11.45;;;15.60;99.90;;;;;;5420806;26;20350;-81
2024/04/08 00:25:34;;;;;;;16.63;11.80;;;15.60;99.90;;;;;;5429038;26;19995;-81
2024/04/08 00:28:00;;;;;;;24.92;10.93;;;15.60;99.90;;;;;;5476116;26;20492;-81
2024/04/08 00:30:27;;;;;;;19.27;10.85;;;15.50;99.90;;;;;;5420934;26;20043;-81
2024/04/08 00:32:53;;;;;;;22.13;11.27;;;15.50;99.90;;;;;;5425397;26;20325;-81
2024/04/08 00:35:20;;;;;;;21.25;11.45;;;15.40;99.90;;;;;;5420751;26;20018;-81
2024/04/08 00:37:48;;;;;;;17.40;11.05;;;15.40;99.90;;;;;;5435348;26;20026;-81
2024/04/08 00:40:15;;;;;;;22.58;10.90;;;15.40;99.90;;;;;;5456759;26;20006;-81
2024/04/08 00:42:41;;;;;;;20.05;11.60;;;15.30;99.90;;;;;;5456577;26;20384;-81
2024/04/08 00:45:11;;;;;;;19.05;10.95;;;15.30;99.90;;;;;;5491241;26;20032;-81
2024/04/08 00:47:37;;;;;;;21.95;11.00;;;15.20;99.90;;;;;;5453482;26;20010;-81
2024/04/08 00:50:04;;;;;;;20.05;11.20;;;15.10;99.90;;;;;;5443451;26;20009;-81
2024/04/08 00:52:34;;;;;;;22.15;11.02;;;15.10;99.90;;;;;;5458373;26;20018;-81
2024/04/08 00:55:01;;;;;;;25.75;11.18;;;15.10;99.90;;;;;;5492259;26;20030;-81
2024/04/08 00:57:28;;;;;;;16.90;10.75;;;15.00;99.90;;;;;;5456430;26;20085;-81
2024/04/08 00:59:54;;;;;;;19.83;10.75;;;15.00;99.90;;;;;;5455903;26;20468;-81
2024/04/08 01:02:21;;;;;;;22.70;10.98;;;15.00;99.90;;;;;;5482105;26;20014;-81
2024/04/08 01:04:48;;;;;;;24.30;11.77;;;14.80;99.90;;;;;;5426469;26;20010;-82
2024/04/08 01:07:14;;;;;;;14.55;11.30;;;14.90;99.90;;;;;;5424368;26;20550;-81
2024/04/08 01:09:40;;;;;;;19.05;11.75;;;14.80;99.90;;;;;;5459790;26;20326;-81
2024/04/08 01:12:07;;;;;;;14.85;10.80;;;14.80;99.90;;;;;;5492166;26;20043;-81
2024/04/08 01:14:33;;;;;;;16.30;10.63;;;14.80;99.90;;;;;;5490454;26;20008;-81
2024/04/08 01:17:00;;;;;;;18.00;10.50;;;14.80;99.90;;;;;;5459997;26;20005;-81
2024/04/08 01:19:26;;;;;;;25.15;11.48;;;14.90;99.90;;;;;;5458717;26;20002;-81
2024/04/08 01:21:53;;;;;;;18.88;11.27;;;14.90;99.90;;;;;;5455798;26;19999;-81
2024/04/08 01:24:19;;;;;;;24.02;10.55;;;14.90;99.90;;;;;;5455333;26;19999;-81
2024/04/08 01:26:45;;;;;;;18.88;10.23;;;14.90;99.90;;;;;;5484015;26;20092;-81
2024/04/08 01:29:12;;;;;;;17.95;10.73;;;14.90;99.90;;;;;;5430758;26;20337;-81
2024/04/08 01:31:39;;;;;;;19.30;10.88;;;14.80;99.90;;;;;;5455280;26;20002;-81
2024/04/08 01:34:05;;;;;;;19.30;11.23;;;14.80;99.90;;;;;;5455515;26;20813;-81
2024/04/08 01:36:32;;;;;;;18.05;10.80;;;14.70;99.90;;;;;;5473458;26;19998;-81
2024/04/08 01:39:04;;;;;;;21.73;10.77;;;14.60;99.90;;;;;;5465920;26;20072;-81
2024/04/08 01:41:31;;;;;;;16.40;10.05;;;14.60;99.90;;;;;;5455329;26;20003;-81
2024/04/08 01:43:58;;;;;;;22.42;11.25;;;14.50;99.90;;;;;;5423347;26;20006;-81
2024/04/08 01:46:24;;;;;;;15.30;10.80;;;14.40;99.90;;;;;;5478113;26;19994;-81
2024/04/08 01:48:51;;;;;;;19.50;10.60;;;14.40;99.90;;;;;;5442624;26;19994;-81
2024/04/08 01:51:20;;;;;;;15.88;9.73;;;14.30;99.90;;;;;;5429433;26;20009;-81
2024/04/08 01:53:46;;;;;;;18.00;10.50;;;14.40;99.90;;;;;;5491603;26;20002;-81
2024/04/08 01:56:13;;;;;;;14.88;11.00;;;14.30;99.90;;;;;;5428165;26;19998;-81
2024/04/08 01:58:39;;;;;;;16.83;10.48;;;14.30;99.90;;;;;;5471140;26;19999;-81
2024/04/08 02:01:05;;;;;;;18.55;11.07;;;14.30;99.90;;;;;;5393636;26;20010;-81
2024/04/08 02:03:32;;;;;;;20.98;11.60;;;14.30;99.90;;;;;;5423232;26;20451;-81
2024/04/08 02:06:04;;;;;;;23.70;11.32;;;14.40;99.90;;;;;;5438473;26;20022;-81
2024/04/08 02:08:34;;;;;;;18.27;11.25;;;14.40;99.90;;;;;;5453012;26;19998;-81
2024/04/08 02:11:01;;;;;;;21.30;11.55;;;14.40;99.90;;;;;;5459422;26;20480;-81
2024/04/08 02:13:27;;;;;;;21.75;11.07;;;14.40;99.90;;;;;;5491402;26;20002;-81
2024/04/08 02:15:54;;;;;;;18.38;10.52;;;14.40;99.90;;;;;;5458483;26;21730;-81
2024/04/08 02:18:20;;;;;;;29.52;10.25;;;14.40;99.90;;;;;;5491167;26;19998;-81
2024/04/08 02:20:47;;;;;;;15.05;10.07;;;14.30;99.90;;;;;;5489486;26;20013;-81
2024/04/08 02:23:14;;;;;;;19.85;10.95;;;14.30;99.90;;;;;;5428522;26;20013;-81
2024/04/08 02:25:43;;;;;;;18.83;10.13;;;14.30;99.90;;;;;;5490455;26;20013;-81
2024/04/08 02:28:11;;;;;;;18.55;10.82;;;14.20;99.90;;;;;;5446740;26;20017;-81
2024/04/08 02:30:38;;;;;;;18.13;9.88;;;14.20;99.90;;;;;;5458963;26;20344;-81
2024/04/08 02:33:05;;;;;;;17.35;9.82;;;14.20;99.90;;;;;;5452542;26;20009;-81
2024/04/08 02:35:38;;;;;;;14.02;10.00;;;14.20;99.90;;;;;;5490874;26;20017;-81
2024/04/08 02:38:05;;;;;;;16.17;9.63;;;14.20;99.90;;;;;;5448430;26;19999;-81
2024/04/08 02:40:32;;;;;;;17.42;10.15;;;14.10;99.90;;;;;;5422850;26;20002;-81
2024/04/08 02:42:59;;;;;;;13.88;9.90;;;14.10;99.90;;;;;;5428644;26;20074;-81
2024/04/08 02:45:26;;;;;;;21.25;9.93;;;14.00;99.90;;;;;;5428570;26;20358;-81
2024/04/08 02:47:53;;;;;;;11.90;9.00;;;13.90;99.90;;;;;;5421480;26;20011;-81
2024/04/08 02:50:19;;;;;;;16.90;9.38;;;13.90;99.90;;;;;;5392741;26;20003;-81
2024/04/08 02:52:45;;;;;;;20.15;9.48;;;13.80;99.90;;;;;;5456294;26;20003;-81
2024/04/08 02:55:11;;;;;;;11.38;8.80;;;13.80;99.90;;;;;;5490017;26;20093;-81
2024/04/08 02:57:38;;;;;;;19.65;10.70;;;13.80;99.90;;;;;;5458513;26;20002;-81
2024/04/08 03:00:05;;;;;;;17.65;9.35;;;13.80;99.90;;;;;;5490557;26;20010;-80
2024/04/08 03:02:31;;;;;;;17.83;9.90;;;13.70;99.90;;;;;;5490615;26;19998;-81
2024/04/08 03:04:58;;;;;;;18.95;10.18;;;13.70;99.90;;;;;;5454476;26;20013;-81
2024/04/08 03:07:24;;;;;;;15.70;10.40;;;13.70;99.90;;;;;;5452862;26;20022;-80
2024/04/08 03:09:51;;;;;;;28.80;11.25;;;13.70;99.90;;;;;;5457902;26;19998;-81
2024/04/08 03:12:18;;;;;;;20.15;11.45;;;13.80;99.90;;;;;;5490336;26;20013;-81
2024/04/08 03:14:45;;;;;;;20.92;12.15;;;13.80;99.90;;;;;;5427928;26;19999;-81
2024/04/08 03:17:11;;;;;;;27.73;11.27;;;13.80;99.90;;;;;;5453819;26;20006;-81
2024/04/08 03:19:38;;;;;;;21.50;11.15;;;13.80;99.90;;;;;;5486475;26;20002;-82
2024/04/08 03:22:04;;;;;;;24.95;11.80;;;13.90;99.90;;;;;;5458080;26;20010;-80
2024/04/08 03:24:31;;;;;;;18.38;10.57;;;13.90;99.90;;;;;;5489561;26;20465;-80
2024/04/08 03:26:57;;;;;;;21.17;11.40;;;13.80;99.90;;;;;;5490333;26;20009;-80
2024/04/08 03:29:24;;;;;;;20.50;11.02;;;13.70;99.90;;;;;;5429730;26;19998;-79
2024/04/08 03:31:50;;;;;;;22.88;11.38;;;13.70;99.90;;;;;;5453899;26;20015;-80
2024/04/08 03:34:19;;;;;;;17.75;12.15;;;13.60;99.90;;;;;;5422566;26;20317;-80
2024/04/08 03:36:45;;;;;;;23.35;12.52;;;13.60;99.90;;;;;;5422082;26;20003;-80
2024/04/08 03:39:12;;;;;;;20.10;13.02;;;13.60;99.90;;;;;;5479089;26;20443;-79
2024/04/08 03:41:38;;;;;;;24.15;12.05;;;13.70;99.90;;;;;;5489948;26;20006;-79
2024/04/08 03:44:05;;;;;;;21.73;12.18;;;13.70;99.90;;;;;;5489642;26;19994;-79
2024/04/08 03:46:32;;;;;;;32.25;12.23;;;13.70;99.90;;;;;;5489667;26;20006;-80
2024/04/08 03:49:02;;;;;;;15.32;10.45;;;13.70;99.90;;;;;;5489767;26;20002;-80
2024/04/08 03:51:29;;;;;;;15.40;11.07;;;13.60;99.90;;;;;;5487977;26;20520;-80
2024/04/08 03:53:56;;;;;;;19.75;11.50;;;13.50;99.90;;;;;;5456967;26;19998;-79
2024/04/08 03:56:22;;;;;;;15.73;10.65;;;13.50;99.90;;;;;;5489771;26;20010;-79
2024/04/08 03:58:54;;;;;;;18.00;11.25;;;13.50;99.90;;;;;;5458256;26;19998;-79
2024/04/08 04:01:21;;;;;;;22.02;10.88;;;13.40;99.90;;;;;;5457551;26;20002;-80
2024/04/08 04:03:47;;;;;;;19.85;10.65;;;13.30;99.90;;;;;;5489318;26;20005;-79
2024/04/08 04:06:14;;;;;;;18.88;10.82;;;13.20;99.90;;;;;;5457625;26;20013;-79
2024/04/08 04:08:43;;;;;;;15.45;10.68;;;13.20;99.90;;;;;;5489506;26;20010;-80
2024/04/08 04:11:10;;;;;;;15.00;10.52;;;13.20;99.90;;;;;;5489526;26;20369;-80
2024/04/08 04:13:37;;;;;;;16.27;11.30;;;13.20;99.90;;;;;;5488779;26;19998;-80
2024/04/08 04:16:04;;;;;;;18.08;11.90;;;13.20;99.90;;;;;;5489201;26;20006;-80
2024/04/08 04:18:30;;;;;;;21.83;13.07;;;13.20;99.90;;;;;;5413015;26;20010;-81
2024/04/08 04:20:57;;;;;;;20.88;13.30;;;13.30;99.90;;;;;;5391625;26;20013;-80
2024/04/08 04:23:23;;;;;;;22.25;12.77;;;13.40;99.90;;;;;;5427822;26;20482;-81
2024/04/08 04:25:57;;;;;;;19.60;13.32;;;13.40;99.90;;;;;;5457098;26;20400;-81
2024/04/08 04:28:24;;;;;;;21.35;13.80;;;13.50;99.90;;;;;;5477156;26;19998;-81
2024/04/08 04:30:59;;;;;;;24.55;13.80;;;13.50;99.90;;;;;;5420752;26;20018;-81
2024/04/08 04:33:26;;;;;;;23.50;14.30;;;13.60;99.90;;;;;;5459377;26;20320;-81
2024/04/08 04:35:56;;;;;;;23.48;12.00;;;13.60;99.90;;;;;;5483211;26;20002;-81
2024/04/08 04:38:23;;;;;;;22.02;11.68;;;13.60;99.90;;;;;;5445667;26;20007;-81
2024/04/08 04:41:03;;;;;;;22.67;11.40;;;13.60;99.90;;;;;;5420989;26;20007;-81
2024/04/08 04:43:31;;;;;;;20.17;11.82;;;13.60;99.90;;;;;;5427355;26;20017;-81
2024/04/08 04:46:06;;;;;;;16.50;11.15;;;13.50;99.90;;;;;;5426850;26;20002;-81
2024/04/08 04:48:33;;;;;;;21.40;11.77;;;13.50;99.90;;;;;;5443373;26;20014;-81
2024/04/08 04:50:59;;;;;;;20.70;10.38;;;13.50;99.90;;;;;;5452343;26;20003;-81
2024/04/08 04:53:25;;;;;;;16.98;11.63;;;13.50;99.90;;;;;;5458166;26;20036;-81
2024/04/08 04:55:56;;;;;;;20.77;12.10;;;13.60;99.90;;;;;;5488960;26;20017;-81
2024/04/08 04:58:23;;;;;;;19.73;12.77;;;13.70;99.90;;;;;;5445124;26;20309;-81
2024/04/08 05:00:50;;;;;;;31.60;16.45;;;13.80;99.90;;;;;;5460867;26;20073;-82
2024/04/08 05:03:18;;;;;;;22.75;12.70;;;14.00;99.90;;;;;;5455670;26;20002;-81
2024/04/08 05:05:53;;;;;;;17.55;10.05;;;14.30;99.90;;;;;;5426477;26;19994;-82
2024/04/08 05:08:21;;;;;;;16.60;8.50;;;15.10;99.90;;;;;;5478474;26;20091;-82
2024/04/08 05:10:47;;;;;;;12.20;7.70;;;16.10;99.90;;;;;;5420303;26;19999;-81
2024/04/08 05:13:16;;;;;;;17.67;7.97;;;17.00;99.90;;;;;;5478932;26;19998;-82
2024/04/08 05:15:53;;;;;;;15.27;8.70;;;17.70;99.90;;;;;;5488423;26;20013;-82
2024/04/08 05:18:20;;;;;;;14.00;11.75;;;18.30;99.90;;;;;;5446421;26;20003;-82
2024/04/08 05:20:46;;;;;;;19.88;15.30;;;19.00;99.90;;;;;;5451946;26;20003;-82
2024/04/08 05:23:14;;;;;;;19.85;17.83;;;19.40;99.90;;;;;;5446167;26;20005;-80
2024/04/08 05:25:41;;;;;;;22.55;19.92;;;19.90;99.90;;;;;;5486728;26;20006;-79
2024/04/08 05:28:07;;;;;;;24.02;21.60;;;20.50;99.90;;;;;;5446915;26;19991;-79
2024/04/08 05:30:34;;;;;;;29.17;23.50;;;20.80;99.90;;;;;;5418851;26;19998;-79
2024/04/08 05:33:01;;;;;;;33.15;25.45;;;21.00;99.90;;;;;;5452456;26;19998;-79
2024/04/08 05:35:29;;;;;;;29.55;24.77;;;21.30;99.90;;;;;;5421586;26;20010;-79
2024/04/08 05:37:58;;;;;;;26.30;23.65;;;22.80;99.90;;;;;;5457539;26;20015;-81
2024/04/08 05:40:24;;;;;;;26.00;23.52;;;23.00;99.90;;;;;;5490038;26;20520;-82
2024/04/08 05:42:51;;;;;;;28.55;24.42;;;22.90;99.90;;;;;;5491616;26;20013;-79
2024/04/08 05:45:18;;;;;;;28.60;25.00;;;22.80;99.90;;;;;;5491725;26;20404;-81
2024/04/08 05:47:53;;;;;;;27.88;25.17;;;22.70;99.90;;;;;;5489973;26;20470;-80
2024/04/08 05:50:21;;;;;;;28.05;25.27;;;23.20;99.90;;;;;;5455062;26;20355;-78
2024/04/08 05:52:52;;;;;;;28.23;25.60;;;22.90;99.90;;;;;;5455127;26;20002;-80
2024/04/08 05:55:19;;;;;;;31.15;28.08;;;22.60;99.90;;;;;;5423305;26;19998;-80
2024/04/08 05:57:46;;;;;;;30.33;27.52;;;22.50;99.90;;;;;;5455047;26;20003;-78
2024/04/08 06:00:16;;;;;;;32.58;29.55;;;22.70;99.90;;;;;;5423372;26;20043;-79
2024/04/08 06:02:43;;;;;;;32.40;29.30;;;23.00;99.90;;;;;;5455180;26;20021;-78
2024/04/08 06:05:13;;;;;;;31.50;28.20;;;24.00;99.90;;;;;;5423125;26;20459;-78
2024/04/08 06:07:39;;;;;;;30.67;28.00;;;24.20;99.90;;;;;;5453163;26;19995;-83
2024/04/08 06:10:06;;;;;;;31.10;28.52;;;23.30;99.90;;;;;;5457363;26;19998;-84
2024/04/08 06:12:33;;;;;;;31.27;28.55;;;22.90;99.90;;;;;;5491418;26;20002;-81
2024/04/08 06:15:00;;;;;;;30.90;27.88;;;23.00;99.90;;;;;;5491516;26;20002;-82
2024/04/08 06:17:27;;;;;;;31.50;28.50;;;23.20;99.90;;;;;;5489537;26;19998;-84
2024/04/08 06:19:57;;;;;;;30.48;27.83;;;23.20;99.90;;;;;;5458987;26;19998;-84
2024/04/08 06:22:24;;;;;;;30.45;27.90;;;23.40;99.90;;;;;;5429030;26;19995;-81
2024/04/08 06:24:50;;;;;;;32.58;29.73;;;24.90;99.90;;;;;;5452489;26;20003;-81
2024/04/08 06:27:17;;;;;;;33.72;30.35;;;24.80;99.90;;;;;;5454627;26;20013;-82
2024/04/08 06:29:43;;;;;;;33.50;30.60;;;24.20;99.90;;;;;;5428851;26;20004;-79
2024/04/08 06:32:10;;;;;;;32.65;29.67;;;24.10;99.90;;;;;;5419364;26;20000;-83
2024/04/08 06:34:37;;;;;;;33.35;29.73;;;24.40;99.90;;;;;;5417334;26;20003;-85
2024/04/08 06:37:04;;;;;;;32.47;29.65;;;24.90;99.90;;;;;;5418120;26;20015;-83
2024/04/08 06:39:30;;;;;;;33.10;29.85;;;24.60;99.90;;;;;;5442058;26;20009;-84
2024/04/08 06:41:57;;;;;;;32.88;29.42;;;24.90;99.90;;;;;;5452982;26;20014;-84
2024/04/08 06:44:27;;;;;;;32.63;29.58;;;24.80;99.90;;;;;;5459028;26;20010;-84
2024/04/08 06:46:54;;;;;;;33.05;29.98;;;24.90;99.90;;;;;;5459269;26;20007;-83
2024/04/08 06:49:21;;;;;;;32.67;29.83;;;25.10;99.90;;;;;;5455649;26;20011;-84
2024/04/08 06:51:48;;;;;;;32.88;29.65;;;25.30;99.90;;;;;;5454652;26;20003;-84
2024/04/08 06:54:14;;;;;;;32.55;29.85;;;25.40;99.90;;;;;;5453882;26;20052;-84
2024/04/08 06:56:41;;;;;;;32.70;29.60;;;25.00;99.90;;;;;;5460313;26;20002;-84
2024/04/08 06:59:11;;;;;;;31.63;28.58;;;25.30;99.90;;;;;;5440837;26;20004;-84
2024/04/08 07:01:38;;;;;;;30.75;28.10;;;25.30;99.90;;;;;;5421829;26;20011;-85
2024/04/08 07:04:05;;;;;;;32.53;29.30;;;25.00;99.90;;;;;;5416853;26;20018;-84
2024/04/08 07:06:31;;;;;;;32.72;29.58;;;24.90;99.90;;;;;;5420264;26;20015;-84
2024/04/08 07:08:58;;;;;;;32.63;29.70;;;25.00;99.90;;;;;;5436739;26;20036;-85
2024/04/08 07:11:26;;;;;;;31.63;28.95;;;25.30;99.90;;;;;;5420735;26;20000;-85
2024/04/08 07:13:53;;;;;;;34.15;31.10;;;25.40;99.90;;;;;;5436968;26;20009;-84
2024/04/08 07:16:19;;;;;;;35.50;31.95;;;25.00;99.90;;;;;;5452715;26;20002;-85
2024/04/08 07:18:46;;;;;;;33.85;30.95;;;24.80;99.90;;;;;;5410096;26;20027;-85
2024/04/08 07:21:12;;;;;;;35.33;31.58;;;25.20;99.90;;;;;;5416581;26;20010;-84
2024/04/08 07:23:39;;;;;;;35.80;30.95;;;25.30;99.90;;;;;;5404682;26;20078;-85
2024/04/08 07:26:06;;;;;;;31.23;28.80;;;25.60;99.90;;;;;;5458287;26;20002;-85
2024/04/08 07:28:33;;;;;;;32.15;29.00;;;25.80;99.90;;;;;;5490120;26;20009;-85
2024/04/08 07:31:00;;;;;;;32.55;29.70;;;26.20;99.90;;;;;;5488487;26;19998;-85
2024/04/08 07:33:26;;;;;;;32.60;29.85;;;26.50;99.90;;;;;;5449051;26;20451;-85
2024/04/08 07:35:53;;;;;;;33.50;30.52;;;25.50;99.90;;;;;;5392412;26;20115;-85
2024/04/08 07:38:20;;;;;;;33.17;30.50;;;25.80;99.90;;;;;;5397753;26;20453;-86
2024/04/08 07:40:47;;;;;;;33.65;30.90;;;26.10;99.90;;;;;;5458182;26;20012;-84
2024/04/08 07:43:13;;;;;;;32.53;29.83;;;26.40;99.90;;;;;;5457935;26;20037;-85
2024/04/08 07:45:40;;;;;;;33.22;30.77;;;26.90;99.90;;;;;;5458193;26;20014;-84
2024/04/08 07:48:08;;;;;;;31.80;29.35;;;26.30;99.90;;;;;;5488107;26;20051;-85
2024/04/08 07:50:38;;;;;;;32.75;30.35;;;26.30;99.90;;;;;;5422050;26;19995;-84
2024/04/08 07:53:09;;;;;;;31.80;29.40;;;26.50;99.90;;;;;;5455892;26;20002;-84
2024/04/08 07:55:36;;;;;;;33.35;30.65;;;26.70;99.90;;;;;;5457349;26;20002;-84
2024/04/08 07:58:02;;;;;;;45.22;32.95;;;27.00;99.90;;;;;;5459788;26;20012;-85
2024/04/08 08:00:29;;;;;;;34.30;31.25;;;27.50;99.90;;;;;;5427643;26;20120;-85
2024/04/08 08:02:55;;;;;;;34.38;31.45;;;27.20;99.90;;;;;;5457477;26;20009;-85
2024/04/08 08:05:22;;;;;;;42.63;31.65;;;27.40;99.90;;;;;;5427744;26;20006;-81
2024/04/08 08:07:49;;;;;;;33.67;31.20;;;27.60;99.90;;;;;;5489684;26;20030;-80
2024/04/08 08:10:19;;;;;;;34.90;31.90;;;27.60;99.90;;;;;;5488826;26;19998;-81
2024/04/08 08:12:46;;;;;;;33.88;31.48;;;27.10;99.90;;;;;;5489572;26;20022;-81
2024/04/08 08:15:14;;;;;;;35.42;32.80;;;27.10;99.90;;;;;;5456202;26;20009;-81
2024/04/08 08:17:40;;;;;;;36.78;34.15;;;27.50;99.90;;;;;;5489579;26;20002;-81
2024/04/08 08:20:07;;;;;;;38.28;35.28;;;28.00;99.90;;;;;;5457466;26;20013;-81
2024/04/08 08:22:33;;;;;;;36.55;34.03;;;28.40;99.90;;;;;;5488785;26;19994;-80
2024/04/08 08:25:00;;;;;;;37.28;34.67;;;28.40;99.90;;;;;;5489056;26;20034;-81
2024/04/08 08:27:26;;;;;;;37.13;34.72;;;28.60;99.90;;;;;;5489258;26;20002;-81
2024/04/08 08:29:54;;;;;;;37.10;34.67;;;28.70;99.90;;;;;;5461566;26;20010;-81
2024/04/08 08:32:23;;;;;;;36.85;34.20;;;28.50;99.90;;;;;;5446023;26;19998;-81
2024/04/08 08:34:51;;;;;;;37.78;34.80;;;27.90;99.90;;;;;;5488984;26;20012;-81
2024/04/08 08:37:18;;;;;;;37.00;34.65;;;28.20;99.90;;;;;;5489148;26;20354;-81
2024/04/08 08:39:50;;;;;;;38.53;35.92;;;28.50;99.90;;;;;;5488975;26;20013;-81
2024/04/08 08:42:21;;;;;;;39.22;36.20;;;28.80;99.90;;;;;;5488488;26;19998;-81
2024/04/08 08:44:55;;;;;;;38.97;36.05;;;28.60;99.90;;;;;;5488687;26;20537;-81
2024/04/08 08:47:23;;;;;;;37.67;34.38;;;28.30;99.90;;;;;;5426899;26;20523;-81
2024/04/08 08:49:53;;;;;;;35.47;33.10;;;28.20;99.90;;;;;;5450555;26;19999;-81
2024/04/08 08:52:21;;;;;;;36.00;33.30;;;28.20;99.90;;;;;;5452356;26;19999;-81
2024/04/08 08:54:52;;;;;;;36.17;33.67;;;28.00;99.90;;;;;;5464511;26;20006;-81
2024/04/08 08:57:19;;;;;;;36.67;33.92;;;27.90;99.90;;;;;;5456441;26;20017;-81
2024/04/08 08:59:51;;;;;;;37.78;34.72;;;27.70;99.90;;;;;;5488196;26;20127;-81
2024/04/08 09:02:17;;;;;;;36.83;34.17;;;28.10;99.90;;;;;;5488309;26;20010;-81
2024/04/08 09:04:44;;;;;;;37.40;34.63;;;28.10;99.90;;;;;;5487903;26;20455;-81
2024/04/08 09:07:11;;;;;;;37.22;34.58;;;27.80;99.90;;;;;;5450597;26;20071;-80
2024/04/08 09:09:38;;;;;;;36.85;34.55;;;27.90;99.90;;;;;;5426717;26;19999;-80
2024/04/08 09:12:09;;;;;;;37.17;34.78;;;27.80;99.90;;;;;;5423978;26;20006;-80
2024/04/08 09:14:39;;;;;;;38.35;35.67;;;28.00;99.90;;;;;;5455523;26;20002;-80
2024/04/08 09:17:11;;;;;;;38.20;35.70;;;27.80;99.90;;;;;;5487038;26;20006;-81
2024/04/08 09:19:38;;;;;;;39.00;35.80;;;27.90;99.90;;;;;;5491841;26;20049;-81
2024/04/08 09:22:05;;;;;;;36.35;34.05;;;28.00;99.90;;;;;;5473379;26;20031;-80
2024/04/08 09:24:32;;;;;;;37.53;35.03;;;27.40;99.90;;;;;;5455295;26;19999;-81
2024/04/08 09:26:59;;;;;;;36.97;34.53;;;27.40;99.90;;;;;;5483310;26;20002;-81
2024/04/08 09:29:26;;;;;;;36.88;34.25;;;27.10;99.90;;;;;;5453506;26;20027;-80
2024/04/08 09:31:53;;;;;;;36.33;33.78;;;27.10;99.90;;;;;;5481812;26;19998;-80
2024/04/08 09:34:20;;;;;;;36.50;34.20;;;27.30;99.90;;;;;;5492033;26;20030;-81
2024/04/08 09:36:49;;;;;;;37.58;34.97;;;27.40;99.90;;;;;;5459372;26;19999;-81
2024/04/08 09:39:18;;;;;;;37.63;35.03;;;27.30;99.90;;;;;;5459648;26;20055;-81
2024/04/08 09:41:48;;;;;;;38.15;35.20;;;27.40;99.90;;;;;;5491760;26;20002;-81
2024/04/08 09:44:17;;;;;;;36.22;33.90;;;27.60;99.90;;;;;;5491703;26;20044;-81
2024/04/08 09:46:45;;;;;;;36.72;34.40;;;27.70;99.90;;;;;;5489381;26;20331;-83
2024/04/08 09:49:12;;;;;;;37.50;34.85;;;27.60;99.90;;;;;;5445375;26;20401;-86
2024/04/08 09:51:42;;;;;;;37.95;35.60;;;27.60;99.90;;;;;;5455303;26;19999;-84
2024/04/08 09:54:12;;;;;;;37.70;35.22;;;27.70;99.90;;;;;;5455127;26;19999;-84
2024/04/08 09:56:41;;;;;;;37.80;35.30;;;27.60;99.90;;;;;;5444682;26;20017;-84
2024/04/08 09:59:22;;;;;;;37.78;35.38;;;27.60;99.90;;;;;;5477564;26;19999;-83
2024/04/08 10:01:54;;;;;;;38.03;35.72;;;27.60;99.90;;;;;;5423605;26;20002;-83
2024/04/08 10:04:24;;;;;;;38.03;35.72;;;27.90;99.90;;;;;;5423215;26;19999;-83
2024/04/08 10:06:52;;;;;;;38.67;36.17;;;28.00;99.90;;;;;;5416499;26;20002;-83
2024/04/08 10:09:23;;;;;;;39.70;36.67;;;27.70;99.90;;;;;;5427973;26;20010;-83
2024/04/08 10:11:54;;;;;;;38.20;35.80;;;27.80;99.90;;;;;;5393479;26;20027;-83
2024/04/08 10:14:28;;;;;;;38.88;36.20;;;27.90;99.90;;;;;;5393494;26;20003;-83
2024/04/08 10:16:58;;;;;;;;;;;27.80;99.90;;;;;;5478881;26;19998;-81
2024/04/08 10:19:27;;;;;;;38.63;36.05;;;28.00;99.90;;;;;;5458781;26;19924;-81
2024/04/08 10:21:59;;;;;;;38.10;35.75;;;27.80;99.90;;;;;;5491208;26;20002;-81
2024/04/08 10:24:36;;;;;;;38.03;35.67;;;27.60;99.90;;;;;;5452747;26;20470;-81
2024/04/08 10:27:08;;;;;;;38.92;36.38;;;27.60;99.90;;;;;;5454649;26;20005;-81
2024/04/08 10:29:43;;;;;;;38.33;35.97;;;27.70;99.70;;;;;;5433607;26;20448;-82
2024/04/08 10:32:11;;;;;;;38.45;35.90;;;27.70;99.40;;;;;;5418014;26;20000;-81
2024/04/08 10:34:41;;;;;;;38.45;35.83;;;27.80;99.90;;;;;;5392672;26;20329;-81
2024/04/08 10:37:08;;;;;;;39.63;36.95;;;27.70;99.90;;;;;;5442055;26;20007;-81
2024/04/08 10:39:34;;;;;;;39.20;36.80;;;27.70;99.30;;;;;;5433694;26;20011;-81
2024/04/08 10:42:17;;;;;;;39.00;36.47;;;27.30;99.20;;;;;;5416984;26;20003;-81
2024/04/08 10:44:44;;;;;;;39.08;36.42;;;27.40;99.40;;;;;;5417521;26;20060;-81
2024/04/08 10:47:11;;;;;;;38.70;36.35;;;27.50;99.00;;;;;;5418653;26;20010;-81
2024/04/08 10:49:41;;;;;;;39.47;36.97;;;27.70;98.90;;;;;;5437872;26;20014;-81
2024/04/08 10:52:11;;;;;;;39.83;37.10;;;27.70;99.00;;;;;;5452409;26;20040;-82
2024/04/08 10:54:38;;;;;;;38.70;36.30;;;27.70;98.60;;;;;;5453880;26;19995;-81
2024/04/08 10:57:05;;;;;;;38.78;36.30;;;27.50;98.60;;;;;;5454117;26;20003;-81
2024/04/08 10:59:32;;;;;;;38.63;35.85;;;27.50;98.80;;;;;;5441156;26;20333;-81
2024/04/08 11:01:59;;;;;;;37.97;35.58;;;27.50;98.80;;;;;;5454283;26;20014;-81
2024/04/08 11:04:27;;;;;;;39.05;36.13;;;27.10;98.30;;;;;;5453479;26;20486;-81
2024/04/08 11:06:54;;;;;;;38.53;36.13;;;27.00;98.70;;;;;;5453894;26;20025;-81
2024/04/08 11:09:21;;;;;;;38.53;35.92;;;27.00;98.60;;;;;;5452323;26;20452;-81
2024/04/08 11:11:50;;;;;;;38.42;35.97;;;26.90;98.60;;;;;;5451660;26;20011;-81
2024/04/08 11:14:19;;;;;;;38.83;36.47;;;27.10;98.90;;;;;;5476366;26;20032;-81
2024/04/08 11:16:46;;;;;;;39.35;36.75;;;27.20;99.20;;;;;;5418178;26;20000;-81
2024/04/08 11:19:12;;;;;;;39.00;36.58;;;27.10;98.20;;;;;;5421906;26;20012;-81
2024/04/08 11:21:39;;;;;;;40.00;37.17;;;26.80;98.80;;;;;;5451317;26;19999;-81
2024/04/08 11:24:11;;;;;;;38.55;35.90;;;27.00;99.30;;;;;;5451796;26;20029;-81
2024/04/08 11:26:38;;;;;;;38.17;35.78;;;27.10;99.50;;;;;;5452485;26;20257;-81
2024/04/08 11:29:05;;;;;;;38.22;35.80;;;27.00;99.20;;;;;;5452461;26;20034;-81
2024/04/08 11:31:32;;;;;;;38.15;35.72;;;27.10;99.30;;;;;;5453580;26;20328;-80
2024/04/08 11:33:59;;;;;;;38.67;36.17;;;27.10;99.40;;;;;;5451893;26;20013;-80
2024/04/08 11:36:26;;;;;;;39.33;36.55;;;27.20;99.20;;;;;;5454015;26;20460;-79
2024/04/08 11:38:53;;;;;;;39.25;36.50;;;27.10;99.30;;;;;;5446400;26;19999;-80
2024/04/08 11:41:19;;;;;;;39.47;37.00;;;27.30;98.90;;;;;;5444546;26;19995;-80
2024/04/08 11:43:46;;;;;;;38.67;36.17;;;27.20;98.50;;;;;;5451925;26;20015;-80
2024/04/08 11:46:13;;;;;;;39.75;37.25;;;27.00;98.80;;;;;;5451713;26;20003;-80
2024/04/08 11:48:41;;;;;;;39.20;36.75;;;27.00;98.50;;;;;;5450002;26;20003;-81
2024/04/08 11:51:08;;;;;;;38.75;36.25;;;26.90;98.30;;;;;;5441117;26;19994;-79
2024/04/08 11:53:35;;;;;;;40.00;37.17;;;26.60;98.20;;;;;;5453399;26;20031;-80
2024/04/08 11:56:02;;;;;;;37.95;35.65;;;26.60;98.60;;;;;;5453383;26;20003;-81
2024/04/08 11:58:29;;;;;;;37.85;35.53;;;26.70;98.60;;;;;;5450601;26;19994;-81
2024/04/08 12:00:57;;;;;;;38.50;36.00;;;26.60;98.60;;;;;;5417097;26;20015;-80
2024/04/08 12:03:24;;;;;;;38.45;35.75;;;26.60;98.50;;;;;;5415697;26;20015;-80
2024/04/08 12:05:52;;;;;;;38.47;35.85;;;26.50;98.10;;;;;;5417363;26;20338;-81
2024/04/08 12:08:19;;;;;;;38.15;35.72;;;26.60;97.90;;;;;;5415508;26;20003;-82
2024/04/08 12:10:46;;;;;;;38.08;35.72;;;26.30;98.10;;;;;;5437163;26;19999;-80
2024/04/08 12:13:18;;;;;;;38.22;35.78;;;26.50;98.50;;;;;;5429410;26;20340;-79
2024/04/08 12:15:46;;;;;;;38.70;36.08;;;26.70;97.80;;;;;;5415438;26;20003;-82
2024/04/08 12:18:13;;;;;;;37.67;35.35;;;26.80;98.20;;;;;;5415733;26;20010;-81
2024/04/08 12:20:41;;;;;;;38.78;36.28;;;26.70;98.10;;;;;;5447760;26;20014;-80
2024/04/08 12:23:11;;;;;;;39.30;36.65;;;26.90;98.20;;;;;;5432205;26;20008;-82
2024/04/08 12:25:39;;;;;;;38.58;36.17;;;27.10;98.00;;;;;;5455204;26;20003;-81
2024/04/08 12:28:09;;;;;;;38.97;36.22;;;27.10;97.60;;;;;;5421295;26;20031;-82
2024/04/08 12:30:36;;;;;;;38.55;36.03;;;26.90;97.20;;;;;;5484128;26;20343;-81